createdAt,value
2022-07-29T00:01:44.588Z,19.88
2022-07-29T00:04:13.560Z,19.83
2022-07-29T00:06:42.989Z,19.82
2022-07-29T00:09:11.031Z,19.78
2022-07-29T00:11:39.289Z,19.77
2022-07-29T00:14:07.738Z,19.72
2022-07-29T00:16:35.822Z,19.71
2022-07-29T00:19:05.453Z,19.67
2022-07-29T00:21:35.895Z,19.61
2022-07-29T00:24:06.506Z,19.61
2022-07-29T00:26:34.610Z,19.53
2022-07-29T00:29:33.062Z,19.52
2022-07-29T00:31:53.059Z,19.50
2022-07-29T00:34:39.558Z,19.48
2022-07-29T00:37:07.957Z,19.44
2022-07-29T00:39:36.224Z,19.38
2022-07-29T00:42:05.751Z,19.38
2022-07-29T00:44:40.852Z,19.37
2022-07-29T00:47:11.198Z,19.35
2022-07-29T00:49:42.272Z,19.33
2022-07-29T00:52:12.430Z,19.33
2022-07-29T00:54:44.373Z,19.28
2022-07-29T00:57:14.198Z,19.26
2022-07-29T00:59:42.435Z,19.26
2022-07-29T01:02:11.156Z,19.24
2022-07-29T01:04:42.336Z,19.21
2022-07-29T01:07:11.692Z,19.21
2022-07-29T01:09:46.855Z,19.19
2022-07-29T01:12:22.485Z,19.16
2022-07-29T01:14:51.483Z,19.14
2022-07-29T01:17:27.541Z,19.10
2022-07-29T01:20:02.412Z,19.06
2022-07-29T01:22:41.902Z,19.05
2022-07-29T01:25:22.001Z,19.04
2022-07-29T01:28:11.755Z,18.95
2022-07-29T01:30:45.877Z,18.90
2022-07-29T01:33:37.670Z,18.92
2022-07-29T01:36:25.394Z,18.86
2022-07-29T01:39:18.139Z,18.82
2022-07-29T01:42:02.878Z,18.84
2022-07-29T01:44:42.593Z,18.84
2022-07-29T01:47:15.975Z,18.85
2022-07-29T01:49:49.904Z,18.81
2022-07-29T01:52:47.940Z,18.81
2022-07-29T01:55:20.637Z,18.82
2022-07-29T01:57:50.768Z,18.82
2022-07-29T02:00:20.711Z,18.84
2022-07-29T02:02:50.933Z,18.82
2022-07-29T02:05:23.970Z,18.82
2022-07-29T02:07:56.416Z,18.83
2022-07-29T02:10:28.773Z,18.81
2022-07-29T02:12:59.934Z,18.73
2022-07-29T02:15:31.633Z,18.68
2022-07-29T02:18:04.036Z,18.67
2022-07-29T02:20:33.346Z,18.67
2022-07-29T02:23:03.782Z,18.67
2022-07-29T02:25:37.517Z,18.66
2022-07-29T02:28:08.826Z,18.65
2022-07-29T02:30:42.756Z,18.67
2022-07-29T02:33:15.751Z,18.68
2022-07-29T02:35:49.158Z,18.68
2022-07-29T02:38:37.599Z,18.67
2022-07-29T02:41:12.687Z,18.66
2022-07-29T02:43:46.027Z,18.64
2022-07-29T02:46:28.382Z,18.64
2022-07-29T02:49:21.022Z,18.65
2022-07-29T02:52:21.370Z,18.62
2022-07-29T02:55:00.923Z,18.60
2022-07-29T02:57:54.886Z,18.59
2022-07-29T03:00:28.877Z,18.58
2022-07-29T03:03:00.755Z,18.57
2022-07-29T03:05:30.803Z,18.58
2022-07-29T03:08:03.037Z,18.60
2022-07-29T03:10:32.256Z,18.60
2022-07-29T03:13:02.163Z,18.61
2022-07-29T03:15:30.949Z,18.62
2022-07-29T03:17:59.947Z,18.65
2022-07-29T03:20:28.310Z,18.67
2022-07-29T03:22:56.386Z,18.70
2022-07-29T03:25:24.538Z,18.76
2022-07-29T03:27:52.887Z,18.79
2022-07-29T03:30:22.128Z,18.84
2022-07-29T03:32:52.533Z,18.86
2022-07-29T03:35:21.806Z,18.87
2022-07-29T03:37:50.352Z,18.93
2022-07-29T03:40:25.154Z,18.98
2022-07-29T03:42:56.658Z,19.03
2022-07-29T03:45:26.487Z,19.11
2022-07-29T03:48:01.394Z,19.11
2022-07-29T03:50:30.338Z,19.11
2022-07-29T03:52:59.436Z,19.12
2022-07-29T03:55:29.649Z,19.11
2022-07-29T03:57:59.134Z,19.15
2022-07-29T04:00:29.785Z,19.22
2022-07-29T04:02:59.379Z,19.29
2022-07-29T04:05:27.512Z,19.31
2022-07-29T04:07:55.771Z,19.28
2022-07-29T04:10:30.545Z,19.36
2022-07-29T04:13:01.019Z,19.29
2022-07-29T04:15:31.582Z,19.16
2022-07-29T04:18:00.802Z,19.12
2022-07-29T04:20:29.228Z,19.01
2022-07-29T04:22:57.436Z,18.97
2022-07-29T04:25:25.764Z,18.89
2022-07-29T04:28:04.389Z,18.84
2022-07-29T04:30:34.966Z,18.79
2022-07-29T04:33:05.122Z,18.70
2022-07-29T04:35:38.629Z,18.70
2022-07-29T04:38:15.722Z,18.73
2022-07-29T04:40:47.033Z,18.74
2022-07-29T04:43:22.430Z,18.76
2022-07-29T04:45:52.556Z,18.81
2022-07-29T04:48:24.015Z,18.86
2022-07-29T04:50:57.817Z,18.91
2022-07-29T04:53:27.841Z,19.02
2022-07-29T04:55:56.378Z,19.10
2022-07-29T04:58:24.710Z,19.19
2022-07-29T05:00:53.080Z,19.28
2022-07-29T05:03:21.754Z,19.35
2022-07-29T05:05:49.924Z,19.43
2022-07-29T05:08:18.495Z,19.58
2022-07-29T05:10:46.800Z,19.70
2022-07-29T05:13:15.012Z,19.82
2022-07-29T05:15:43.679Z,19.93
2022-07-29T05:18:11.723Z,19.96
2022-07-29T05:20:40.287Z,20.17
2022-07-29T05:23:13.748Z,20.33
2022-07-29T05:25:44.087Z,20.46
2022-07-29T05:28:13.466Z,20.43
2022-07-29T05:30:43.351Z,20.52
2022-07-29T05:33:35.701Z,20.65
2022-07-29T05:36:00.819Z,20.78
2022-07-29T05:38:30.301Z,20.80
2022-07-29T05:41:00.828Z,20.69
2022-07-29T05:43:29.649Z,20.82
2022-07-29T05:45:58.569Z,20.68
2022-07-29T05:48:26.913Z,20.70
2022-07-29T05:50:55.765Z,20.90
2022-07-29T05:53:25.655Z,20.96
2022-07-29T05:55:57.108Z,20.97
2022-07-29T05:58:25.369Z,20.98
2022-07-29T06:00:54.053Z,21.06
2022-07-29T06:03:22.149Z,21.16
2022-07-29T06:05:50.302Z,21.10
2022-07-29T06:08:18.739Z,21.13
2022-07-29T06:10:47.489Z,21.30
2022-07-29T06:13:17.633Z,21.27
2022-07-29T06:15:46.000Z,21.30
2022-07-29T06:18:14.441Z,21.54
2022-07-29T06:20:42.796Z,21.61
2022-07-29T06:23:11.090Z,21.75
2022-07-29T06:25:42.471Z,21.82
2022-07-29T06:28:18.111Z,21.84
2022-07-29T06:30:46.702Z,22.06
2022-07-29T06:33:19.753Z,22.01
2022-07-29T06:35:53.127Z,22.26
2022-07-29T06:38:34.134Z,22.49
2022-07-29T06:41:02.970Z,22.57
2022-07-29T06:43:50.240Z,22.68
2022-07-29T06:46:21.482Z,22.96
2022-07-29T06:48:53.105Z,23.12
2022-07-29T06:51:23.528Z,23.20
2022-07-29T06:53:59.564Z,23.06
2022-07-29T06:56:39.163Z,23.28
2022-07-29T06:59:10.171Z,23.17
2022-07-29T07:01:42.976Z,23.33
2022-07-29T07:04:12.369Z,23.32
2022-07-29T07:06:41.633Z,23.44
2022-07-29T07:09:12.097Z,23.54
2022-07-29T07:11:40.415Z,23.52
2022-07-29T07:14:08.582Z,23.73
2022-07-29T07:16:37.228Z,23.75
2022-07-29T07:19:05.637Z,23.95
2022-07-29T07:21:36.152Z,24.13
2022-07-29T07:24:04.579Z,24.26
2022-07-29T07:26:33.358Z,24.40
2022-07-29T07:29:01.580Z,24.43
2022-07-29T07:31:29.861Z,24.74
2022-07-29T07:33:58.601Z,24.95
2022-07-29T07:36:26.761Z,25.09
2022-07-29T07:38:55.766Z,24.91
2022-07-29T07:41:24.655Z,24.89
2022-07-29T07:43:53.311Z,25.00
2022-07-29T07:46:21.566Z,25.24
2022-07-29T07:48:49.823Z,25.30
2022-07-29T07:51:17.944Z,25.48
2022-07-29T07:53:46.028Z,25.56
2022-07-29T07:56:16.755Z,25.76
2022-07-29T07:58:44.927Z,25.87
2022-07-29T08:01:13.386Z,26.04
2022-07-29T08:03:41.647Z,26.13
2022-07-29T08:06:09.853Z,26.05
2022-07-29T08:08:37.927Z,26.27
2022-07-29T08:11:09.863Z,26.02
2022-07-29T08:13:41.127Z,26.09
2022-07-29T08:16:13.663Z,26.19
2022-07-29T08:18:43.674Z,26.31
2022-07-29T08:21:15.158Z,26.37
2022-07-29T08:24:15.695Z,26.27
2022-07-29T08:26:47.869Z,26.48
2022-07-29T08:29:19.903Z,26.61
2022-07-29T08:31:48.670Z,26.89
2022-07-29T08:34:26.896Z,27.03
2022-07-29T08:36:59.945Z,27.18
2022-07-29T08:39:29.178Z,27.29
2022-07-29T08:42:00.989Z,27.43
2022-07-29T08:44:30.492Z,27.23
2022-07-29T08:46:59.594Z,27.16
2022-07-29T08:49:30.208Z,26.74
2022-07-29T08:52:00.480Z,26.85
2022-07-29T08:54:30.028Z,26.97
2022-07-29T08:57:00.455Z,27.27
2022-07-29T08:59:31.495Z,27.54
2022-07-29T09:02:01.440Z,27.75
2022-07-29T09:04:35.698Z,27.84
2022-07-29T09:07:08.345Z,27.95
2022-07-29T09:09:37.121Z,28.15
2022-07-29T09:12:10.033Z,28.21
2022-07-29T09:14:42.085Z,28.42
2022-07-29T09:17:10.682Z,28.72
2022-07-29T09:19:45.321Z,28.38
2022-07-29T09:22:41.503Z,28.45
2022-07-29T09:25:13.825Z,28.71
2022-07-29T09:27:52.028Z,28.80
2022-07-29T09:30:30.369Z,28.91
2022-07-29T09:33:04.080Z,28.91
2022-07-29T09:35:37.150Z,29.05
2022-07-29T09:38:14.981Z,28.68
2022-07-29T09:40:57.615Z,28.90
2022-07-29T09:43:28.650Z,29.10
2022-07-29T09:45:57.599Z,29.46
2022-07-29T09:48:29.386Z,29.80
2022-07-29T09:50:59.872Z,29.81
2022-07-29T09:53:39.814Z,29.93
2022-07-29T10:00:05.928Z,30.26
2022-07-29T10:03:02.693Z,30.63
2022-07-29T10:05:36.305Z,30.56
2022-07-29T10:08:06.380Z,30.52
2022-07-29T10:10:40.783Z,30.71
2022-07-29T10:13:15.414Z,30.67
2022-07-29T10:15:47.523Z,30.53
2022-07-29T10:18:22.115Z,30.59
2022-07-29T10:20:52.950Z,30.70
2022-07-29T10:23:21.573Z,30.69
2022-07-29T10:25:50.699Z,30.48
2022-07-29T10:28:18.792Z,30.64
2022-07-29T10:30:48.040Z,29.98
2022-07-29T10:33:26.416Z,30.02
2022-07-29T10:36:20.599Z,29.99
2022-07-29T10:39:25.635Z,29.79
2022-07-29T10:42:19.991Z,29.68
2022-07-29T10:44:49.268Z,29.32
2022-07-29T10:47:25.124Z,29.43
2022-07-29T10:50:03.836Z,29.48
2022-07-29T10:52:51.191Z,29.37
2022-07-29T10:55:37.755Z,29.30
2022-07-29T10:58:32.744Z,29.28
2022-07-29T11:01:37.774Z,29.21
2022-07-29T11:04:10.114Z,29.03
2022-07-29T11:07:06.775Z,29.06
2022-07-29T11:09:38.454Z,29.13
2022-07-29T11:12:39.522Z,29.01
2022-07-29T11:15:18.239Z,28.88
2022-07-29T11:17:59.196Z,28.87
2022-07-29T11:20:42.609Z,28.94
2022-07-29T11:23:33.694Z,28.83
2022-07-29T11:26:23.074Z,28.83
2022-07-29T11:28:55.711Z,28.82
2022-07-29T11:31:45.366Z,28.73
2022-07-29T11:34:20.865Z,28.71
2022-07-29T11:37:10.323Z,28.66
2022-07-29T11:40:08.977Z,28.40
2022-07-29T11:42:41.824Z,28.19
2022-07-29T11:45:43.984Z,28.20
2022-07-29T11:48:29.267Z,28.21
2022-07-29T11:51:00.776Z,28.17
2022-07-29T11:53:32.611Z,28.20
2022-07-29T11:56:03.488Z,28.14
2022-07-29T11:58:32.813Z,28.11
2022-07-29T12:01:04.520Z,28.06
2022-07-29T12:03:36.987Z,28.02
2022-07-29T12:06:15.010Z,27.95
2022-07-29T12:08:44.758Z,27.84
2022-07-29T12:11:21.777Z,27.83
2022-07-29T12:13:54.327Z,27.86
2022-07-29T12:16:29.180Z,27.87
2022-07-29T12:19:03.829Z,27.74
2022-07-29T12:21:53.906Z,27.55
2022-07-29T12:24:26.778Z,27.09
2022-07-29T12:26:58.125Z,26.63
2022-07-29T12:29:33.895Z,26.28
2022-07-29T12:32:14.737Z,26.08
2022-07-29T12:34:48.957Z,25.88
2022-07-29T12:37:17.939Z,25.72
2022-07-29T12:39:46.429Z,25.50
2022-07-29T12:42:19.135Z,25.37
2022-07-29T12:44:52.316Z,25.21
2022-07-29T12:47:21.529Z,25.00
2022-07-29T12:49:51.099Z,24.89
2022-07-29T12:52:46.021Z,24.60
2022-07-29T12:55:15.016Z,24.29
2022-07-29T12:57:53.281Z,23.89
2022-07-29T13:00:25.278Z,23.55
2022-07-29T13:02:58.427Z,23.35
2022-07-29T13:05:49.352Z,23.28
2022-07-29T13:08:22.317Z,23.20
2022-07-29T13:10:51.321Z,23.17
2022-07-29T13:13:19.542Z,23.12
2022-07-29T13:15:50.675Z,23.08
2022-07-29T13:18:33.802Z,23.05
2022-07-29T13:21:13.096Z,22.97
2022-07-29T13:23:42.142Z,22.90
2022-07-29T13:26:12.701Z,22.77
2022-07-29T13:28:44.192Z,22.66
2022-07-29T13:31:13.728Z,22.58
2022-07-29T13:33:42.198Z,22.45
2022-07-29T13:36:10.516Z,22.39
2022-07-29T13:38:38.660Z,22.29
2022-07-29T13:41:08.220Z,22.23
2022-07-29T13:43:37.818Z,22.19
2022-07-29T13:46:06.805Z,22.13
2022-07-29T13:48:38.990Z,22.08
2022-07-29T13:51:07.844Z,22.00
2022-07-29T13:53:36.200Z,21.87
2022-07-29T13:56:06.951Z,21.77
2022-07-29T13:58:35.640Z,21.66
2022-07-29T14:01:04.417Z,21.55
2022-07-29T14:03:32.735Z,21.41
2022-07-29T14:06:01.363Z,21.29
2022-07-29T14:08:30.279Z,21.14
2022-07-29T14:10:58.662Z,21.04
2022-07-29T14:13:27.567Z,20.94
2022-07-29T14:15:57.191Z,20.88
2022-07-29T14:18:25.744Z,20.78
2022-07-29T14:20:56.391Z,20.67
2022-07-29T14:23:24.627Z,20.59
2022-07-29T14:25:54.855Z,20.51
2022-07-29T14:28:22.933Z,20.44
2022-07-29T14:30:51.306Z,20.34
2022-07-29T14:33:19.882Z,20.24
2022-07-29T14:35:48.408Z,20.15
2022-07-29T14:38:16.503Z,20.05
2022-07-29T14:40:44.823Z,19.97
2022-07-29T14:43:14.689Z,19.93
2022-07-29T14:45:42.936Z,19.93
2022-07-29T14:48:15.603Z,19.95
2022-07-29T14:50:43.723Z,19.97
2022-07-29T14:53:13.338Z,20.00
2022-07-29T14:55:41.704Z,20.02
2022-07-29T14:58:16.032Z,20.08
2022-07-29T15:00:45.078Z,20.15
2022-07-29T15:03:13.823Z,20.12
2022-07-29T15:05:52.540Z,20.07
2022-07-29T15:08:21.026Z,20.06
2022-07-29T15:10:50.472Z,20.07
2022-07-29T15:13:20.293Z,20.07
2022-07-29T15:15:48.423Z,20.00
2022-07-29T15:18:25.736Z,19.97
2022-07-29T15:20:54.379Z,19.96
2022-07-29T15:23:22.578Z,19.99
2022-07-29T15:25:50.928Z,20.06
2022-07-29T15:28:19.260Z,20.12
2022-07-29T15:30:47.436Z,20.23
2022-07-29T15:33:15.541Z,20.31
2022-07-29T15:35:44.603Z,20.43
2022-07-29T15:38:12.852Z,20.55
2022-07-29T15:40:42.285Z,20.70
2022-07-29T15:43:10.462Z,20.86
2022-07-29T15:46:03.681Z,21.08
2022-07-29T15:48:32.556Z,21.37
2022-07-29T15:51:01.293Z,21.59
2022-07-29T15:53:29.744Z,21.89
2022-07-29T15:55:58.921Z,22.10
2022-07-29T15:58:27.172Z,22.31
2022-07-29T16:00:55.525Z,22.79
2022-07-29T16:03:24.783Z,23.28
2022-07-29T16:05:52.957Z,23.81
2022-07-29T16:08:20.931Z,23.97
2022-07-29T16:10:49.080Z,23.89
2022-07-29T16:13:18.765Z,23.62
2022-07-29T16:16:03.016Z,23.31
2022-07-29T16:18:32.235Z,23.06
2022-07-29T16:21:01.142Z,23.07
2022-07-29T16:23:29.494Z,23.08
2022-07-29T16:26:00.193Z,23.30
2022-07-29T16:28:30.959Z,23.88
2022-07-29T16:30:59.667Z,24.77
2022-07-29T16:33:29.083Z,25.51
2022-07-29T16:36:19.142Z,26.24
2022-07-29T16:38:47.879Z,26.76
2022-07-29T16:41:15.993Z,27.11
2022-07-29T16:43:44.284Z,27.23
2022-07-29T16:46:14.681Z,27.51
2022-07-29T16:48:50.498Z,27.24
2022-07-29T16:51:20.007Z,26.81
2022-07-29T16:53:49.018Z,26.30
2022-07-29T16:56:20.515Z,26.36
2022-07-29T16:58:48.680Z,26.17
2022-07-29T17:01:19.053Z,25.59
2022-07-29T17:04:05.604Z,25.14
2022-07-29T17:06:39.354Z,24.67
2022-07-29T17:09:12.619Z,24.36
2022-07-29T17:11:52.349Z,24.08
2022-07-29T17:14:25.361Z,23.80
2022-07-29T17:17:00.984Z,23.73
2022-07-29T17:19:35.924Z,23.68
2022-07-29T17:22:15.860Z,23.70
2022-07-29T17:24:48.072Z,23.57
2022-07-29T17:27:17.508Z,23.55
2022-07-29T17:29:46.387Z,23.52
2022-07-29T17:32:14.552Z,23.45
2022-07-29T17:34:43.522Z,23.34
2022-07-29T17:37:13.547Z,23.21
2022-07-29T17:39:46.151Z,23.13
2022-07-29T17:42:14.648Z,23.09
2022-07-29T17:44:43.266Z,23.03
2022-07-29T17:47:16.172Z,22.97
2022-07-29T17:49:45.934Z,22.93
2022-07-29T17:52:14.165Z,22.90
2022-07-29T17:54:42.420Z,22.86
2022-07-29T17:57:11.503Z,22.82
2022-07-29T17:59:39.542Z,22.77
2022-07-29T18:02:07.691Z,22.74
2022-07-29T18:04:35.937Z,22.73
2022-07-29T18:07:04.165Z,22.68
2022-07-29T18:09:32.150Z,22.64
2022-07-29T18:12:02.499Z,22.61
2022-07-29T18:14:30.572Z,22.57
2022-07-29T18:16:58.852Z,22.53
2022-07-29T18:19:30.707Z,22.49
2022-07-29T18:22:04.918Z,22.44
2022-07-29T18:24:36.064Z,22.40
2022-07-29T18:27:04.487Z,22.39
2022-07-29T18:29:32.894Z,22.39
2022-07-29T18:32:01.658Z,22.37
2022-07-29T18:34:30.030Z,22.35
2022-07-29T18:36:58.551Z,22.33
2022-07-29T18:39:27.320Z,22.31
2022-07-29T18:41:55.388Z,22.28
2022-07-29T18:44:23.858Z,22.25
2022-07-29T18:46:52.836Z,22.24
2022-07-29T18:49:22.500Z,22.19
2022-07-29T18:51:52.489Z,22.15
2022-07-29T18:54:21.512Z,22.11
2022-07-29T18:56:50.308Z,22.07
2022-07-29T18:59:21.901Z,22.01
2022-07-29T19:01:50.404Z,21.96
2022-07-29T19:04:21.525Z,21.94
2022-07-29T19:06:49.800Z,21.91
2022-07-29T19:09:18.006Z,21.88
2022-07-29T19:11:46.349Z,21.83
2022-07-29T19:14:14.454Z,21.79
2022-07-29T19:16:42.630Z,21.77
2022-07-29T19:19:14.645Z,21.74
2022-07-29T19:21:42.827Z,21.71
2022-07-29T19:24:15.202Z,21.70
2022-07-29T19:26:47.185Z,21.70
2022-07-29T19:29:16.261Z,21.69
2022-07-29T19:31:44.579Z,21.64
2022-07-29T19:34:13.103Z,21.60
2022-07-29T19:36:41.954Z,21.57
2022-07-29T19:39:10.697Z,21.54
2022-07-29T19:41:39.101Z,21.53
2022-07-29T19:44:11.480Z,21.50
2022-07-29T19:46:40.577Z,21.47
2022-07-29T19:49:10.281Z,21.48
2022-07-29T19:51:38.579Z,21.46
2022-07-29T19:54:07.119Z,21.43
2022-07-29T19:56:42.098Z,21.39
2022-07-29T19:59:10.473Z,21.39
2022-07-29T20:01:38.595Z,21.37
2022-07-29T20:04:07.188Z,21.34
2022-07-29T20:06:35.628Z,21.32
2022-07-29T20:09:05.995Z,21.30
2022-07-29T20:11:36.778Z,21.26
2022-07-29T20:14:05.554Z,21.20
2022-07-29T20:16:33.593Z,21.14
2022-07-29T20:19:02.037Z,21.12
2022-07-29T20:21:30.253Z,21.07
2022-07-29T20:24:00.457Z,21.05
2022-07-29T20:26:28.853Z,21.01
2022-07-29T20:28:57.521Z,20.95
2022-07-29T20:31:25.858Z,20.92
2022-07-29T20:33:53.867Z,20.90
2022-07-29T20:36:21.916Z,20.84
2022-07-29T20:38:50.013Z,20.78
2022-07-29T20:41:18.102Z,20.72
2022-07-29T20:43:46.493Z,20.69
2022-07-29T20:46:14.734Z,20.65
2022-07-29T20:48:43.000Z,20.62
2022-07-29T20:51:11.280Z,20.58
2022-07-29T20:53:40.532Z,20.57
2022-07-29T20:56:08.674Z,20.55
2022-07-29T20:58:36.782Z,20.53
2022-07-29T21:01:06.343Z,20.51
2022-07-29T21:03:34.476Z,20.51
2022-07-29T21:06:02.593Z,20.49
2022-07-29T21:08:32.305Z,20.47
2022-07-29T21:11:00.350Z,20.42
2022-07-29T21:13:28.308Z,20.39
2022-07-29T21:16:02.611Z,20.38
2022-07-29T21:18:36.995Z,20.37
2022-07-29T21:21:05.792Z,20.36
2022-07-29T21:23:34.217Z,20.31
2022-07-29T21:26:02.312Z,20.32
2022-07-29T21:28:36.700Z,20.33
2022-07-29T21:31:10.517Z,20.32
2022-07-29T21:33:40.774Z,20.31
2022-07-29T21:38:58.500Z,20.31
2022-07-29T21:41:26.866Z,20.32
2022-07-29T21:43:55.723Z,20.33
2022-07-29T21:46:26.421Z,20.33
2022-07-29T21:48:54.898Z,20.32
2022-07-29T21:51:22.880Z,20.30
2022-07-29T21:53:53.031Z,20.29
2022-07-29T21:56:21.272Z,20.28
2022-07-29T21:58:51.729Z,20.27
2022-07-29T22:01:19.788Z,20.22
2022-07-29T22:03:47.790Z,20.23
2022-07-29T22:06:18.349Z,20.22
2022-07-29T22:08:48.040Z,20.21
2022-07-29T22:11:16.170Z,20.22
2022-07-29T22:13:44.275Z,20.21
2022-07-29T22:16:15.097Z,20.17
2022-07-29T22:18:47.014Z,20.16
2022-07-29T22:21:15.587Z,20.20
2022-07-29T22:23:43.665Z,20.21
2022-07-29T22:26:11.616Z,20.18
2022-07-29T22:28:39.618Z,20.19
2022-07-29T22:31:08.716Z,20.19
2022-07-29T22:33:37.313Z,20.17
2022-07-29T22:36:05.535Z,20.17
2022-07-29T22:38:34.075Z,20.19
2022-07-29T22:41:03.355Z,20.20
2022-07-29T22:43:31.730Z,20.19
2022-07-29T22:45:59.801Z,20.17
2022-07-29T22:48:28.038Z,20.16
2022-07-29T22:50:56.178Z,20.18
2022-07-29T22:53:24.125Z,20.19
2022-07-29T22:55:52.580Z,20.18
2022-07-29T22:58:20.568Z,20.15
2022-07-29T23:00:49.146Z,20.15
2022-07-29T23:03:17.238Z,20.13
2022-07-29T23:05:45.562Z,20.15
2022-07-29T23:08:14.051Z,20.15
2022-07-29T23:10:41.994Z,20.13
2022-07-29T23:13:10.149Z,20.16
2022-07-29T23:15:38.099Z,20.10
2022-07-29T23:18:06.520Z,20.10
2022-07-29T23:20:34.733Z,20.06
2022-07-29T23:23:03.257Z,20.07
2022-07-29T23:25:31.649Z,20.06
2022-07-29T23:27:59.685Z,20.05
2022-07-29T23:30:28.261Z,20.03
2022-07-29T23:32:56.791Z,20.04
2022-07-29T23:35:27.825Z,20.03
2022-07-29T23:37:55.922Z,20.02
2022-07-29T23:40:24.287Z,20.04
2022-07-29T23:42:52.326Z,20.04
2022-07-29T23:45:20.286Z,20.02
2022-07-29T23:47:48.428Z,20.03
2022-07-29T23:50:16.971Z,19.99
2022-07-29T23:52:45.397Z,20.02
2022-07-29T23:55:37.606Z,20.01
2022-07-29T23:58:03.112Z,20.03
